Astro Chloe — SVAL7 — position and weather

sailwx.info

Track history (hours):
 
Tides and Currents Weather Stations Pressure Air Temp Water Temp Dewpoint Dewpoint Depression Visibility Wind Speed Wind Dir Waves Ship Positions

Astro Chloe

Last reported at 2014-Oct-08 13:23 UTC. Time now 2014-Oct-22 01:36 UTC.
Position N 50°19' W 001°07'.
Warning: this ship's position is 13 days out of date.

Length 333 m; draft 21 m.

Type: Ship (hazmat cat C). MMSI: 240839000.

Date/timePositionNaut miles runAvg speedWind from/ knotsBaromVisibWave heightAir tempDewpointWater temp
2014-Oct-08 13:23N 50°19' W 001°07'1214.9
2014-Oct-08 12:33N 50°22' W 000°48'3012.8
2014-Oct-08 10:10N 50°31' W 000°02'910.5
2014-Oct-08 09:16N 50°33' E 000°12'10 9.7
2014-Oct-08 08:16N 50°36' E 000°27'810.2
2014-Oct-08 07:28N 50°38' E 000°39'1211.8
2014-Oct-08 06:28N 50°44' E 000°55'1313.9
2014-Oct-08 05:34N 50°51' E 001°12'1414.2
2014-Oct-08 04:33N 51°01' E 001°27'1312.9
2014-Oct-08 03:33N 51°11' E 001°42'1111.2
2014-Oct-08 02:33N 51°20' E 001°53'1010.1
2014-Oct-08 01:33N 51°28' E 002°01'10 9.9
2014-Oct-08 00:34N 51°35' E 002°12'1010.2
2014-Oct-07 23:33N 51°44' E 002°22'1211.2
2014-Oct-07 22:31N 51°51' E 002°36'2010.0
2014-Oct-07 20:33N 51°59' E 003°06'5 5.4
2014-Oct-07 19:33N 51°59' E 003°14'10 9.5
2014-Oct-07 18:31N 51°60' E 003°30'1010.1
2014-Oct-07 17:33N 52°01' E 003°46'1010.1
2014-Oct-07 16:33N 51°60' E 004°02'6 5.6
2014-Oct-07 15:33N 51°57' E 004°10'2 2.5
2014-Oct-07 14:33N 51°55' E 004°12'0 0.0
2014-Oct-07 13:32N 51°55' E 004°12'0 0.0
2014-Oct-07 12:29N 51°55' E 004°12'0 0.0
2014-Oct-07 11:32N 51°55' E 004°12'0 0.0
2014-Oct-07 10:32N 51°55' E 004°12'0 0.0
2014-Oct-07 09:29N 51°55' E 004°12'0 0.0
2014-Oct-07 08:29N 51°55' E 004°12'0 0.0
2014-Oct-07 07:26N 51°55' E 004°12'0 0.0
2014-Oct-07 06:32N 51°55' E 004°12'0 0.0
2014-Oct-07 05:29N 51°55' E 004°12'0 0.0
2014-Oct-07 04:29N 51°55' E 004°12'0 0.0
2014-Oct-07 03:32N 51°55' E 004°12'0 0.0
2014-Oct-07 02:29N 51°55' E 004°12'0 0.0
2014-Oct-07 01:32N 51°55' E 004°12'0 0.0
2014-Oct-07 00:32N 51°55' E 004°12'0 0.0
2014-Oct-06 23:32N 51°55' E 004°12'0 0.0
2014-Oct-06 22:32N 51°55' E 004°12'0 0.0
2014-Oct-06 21:32N 51°55' E 004°12'0 0.0
2014-Oct-06 20:32N 51°55' E 004°12'0 0.0
2014-Oct-06 19:32N 51°55' E 004°12'0 0.0
2014-Oct-06 18:32N 51°55' E 004°12'0 0.0
2014-Oct-06 17:32N 51°55' E 004°12'0 0.0
2014-Oct-06 16:32N 51°55' E 004°12'0 0.0
2014-Oct-06 15:32N 51°55' E 004°12'0 0.0
2014-Oct-06 14:32N 51°55' E 004°12'0 0.0
2014-Oct-06 13:32N 51°55' E 004°12'0 0.0
2014-Oct-06 12:29N 51°55' E 004°12'0 0.0
2014-Oct-06 11:29N 51°55' E 004°12'0 0.0
2014-Oct-06 10:32N 51°55' E 004°12'0 0.0
2014-Oct-06 09:29N 51°55' E 004°12'0 0.0
2014-Oct-06 08:29N 51°55' E 004°12'0 0.0
2014-Oct-06 07:32N 51°55' E 004°12'0 0.0
2014-Oct-06 06:29N 51°55' E 004°12'0 0.0
2014-Oct-06 05:29N 51°55' E 004°12'0 0.0
2014-Oct-06 04:32N 51°55' E 004°12'0 0.0
2014-Oct-06 03:32N 51°55' E 004°12'0 0.0
2014-Oct-06 02:32N 51°55' E 004°12'0 0.0
2014-Oct-06 01:32N 51°55' E 004°12'0 0.0
2014-Oct-06 00:29N 51°55' E 004°12'0 0.0
2014-Oct-05 23:32N 51°55' E 004°12'0 0.0
2014-Oct-05 22:26N 51°55' E 004°12'0 0.0
2014-Oct-05 21:32N 51°55' E 004°12'0 0.0
2014-Oct-05 20:29N 51°55' E 004°12'0 0.0
2014-Oct-05 19:32N 51°55' E 004°12'0 0.0
2014-Oct-05 18:32N 51°55' E 004°12'0 0.0
2014-Oct-05 17:32N 51°55' E 004°12'0 0.0
2014-Oct-05 16:32N 51°55' E 004°12'0 0.0
2014-Oct-05 15:29N 51°55' E 004°12'0 0.0
2014-Oct-05 14:32N 51°55' E 004°12'0 0.0
2014-Oct-05 13:32N 51°55' E 004°12'0 0.0
2014-Oct-05 12:32N 51°55' E 004°12'0 0.0
2014-Oct-05 11:29N 51°55' E 004°12'0 0.0
2014-Oct-05 10:32N 51°55' E 004°12'0 0.0
2014-Oct-05 09:32N 51°55' E 004°12'0 0.0
2014-Oct-05 08:32N 51°55' E 004°12'0 0.0
2014-Oct-05 07:32N 51°55' E 004°12'0 0.0
2014-Oct-05 06:32N 51°55' E 004°12'0 0.0
2014-Oct-05 05:32N 51°55' E 004°12'0 0.0
2014-Oct-05 04:32N 51°55' E 004°12'0 0.0
2014-Oct-05 03:32N 51°55' E 004°12'0 0.0
2014-Oct-05 02:32N 51°55' E 004°12'0 0.0
2014-Oct-05 01:32N 51°55' E 004°12'0 0.0
2014-Oct-05 00:32N 51°55' E 004°12'0 0.0
2014-Oct-04 23:32N 51°55' E 004°12'0 0.0
2014-Oct-04 22:32N 51°55' E 004°12'0 0.0
2014-Oct-04 21:32N 51°55' E 004°12'0 0.0
2014-Oct-04 20:32N 51°55' E 004°12'0 0.0
2014-Oct-04 19:29N 51°55' E 004°12'0 0.0
2014-Oct-04 18:32N 51°55' E 004°12'0 0.0
2014-Oct-04 17:32N 51°55' E 004°12'0 0.0
2014-Oct-04 16:29N 51°55' E 004°12'0 0.0
2014-Oct-04 15:32N 51°55' E 004°12'0 0.0
2014-Oct-04 14:32N 51°55' E 004°12'0 0.0
2014-Oct-04 13:32N 51°55' E 004°12'0 0.0
2014-Oct-04 12:32N 51°55' E 004°12'0 0.0
2014-Oct-04 11:32N 51°55' E 004°12'0 0.0
2014-Oct-04 10:32N 51°55' E 004°12'0 0.0
2014-Oct-04 09:32N 51°55' E 004°12'0 0.0
2014-Oct-04 08:29N 51°55' E 004°12'0 0.0
2014-Oct-04 07:29N 51°55' E 004°12'0 0.0
2014-Oct-04 06:32N 51°55' E 004°12'0 0.0
2014-Oct-04 05:32N 51°55' E 004°12'0 0.0
2014-Oct-04 04:32N 51°55' E 004°12'0 0.0
2014-Oct-04 03:29N 51°55' E 004°12'0 0.0
2014-Oct-04 02:29N 51°55' E 004°12'0 0.0
2014-Oct-04 01:32N 51°55' E 004°12'0 0.0
2014-Oct-04 00:29N 51°55' E 004°12'0 0.0
2014-Oct-03 23:32N 51°55' E 004°12'0 0.0
2014-Oct-03 22:32N 51°55' E 004°12'0 0.0
2014-Oct-03 21:32N 51°55' E 004°12'0 0.0
2014-Oct-03 20:32N 51°55' E 004°12'0 0.0
2014-Oct-03 19:29N 51°55' E 004°12'0 0.0
2014-Oct-03 18:32N 51°55' E 004°12'0 0.0
2014-Oct-03 17:32N 51°55' E 004°12'0 0.0
2014-Oct-03 16:32N 51°55' E 004°12'0 0.0
2014-Oct-03 15:32N 51°55' E 004°12'0 0.0
2014-Oct-03 14:32N 51°55' E 004°12'0 0.0
2014-Oct-03 13:29N 51°55' E 004°12'0 0.0
2014-Oct-03 12:32N 51°55' E 004°12'0 0.0
2014-Oct-03 11:32N 51°55' E 004°12'0 0.0
2014-Oct-03 10:32N 51°55' E 004°12'0 0.0
2014-Oct-03 09:32N 51°55' E 004°12'0 0.0
2014-Oct-03 08:23N 51°55' E 004°12'0 0.0
2014-Oct-03 07:29N 51°55' E 004°12'0 0.0
2014-Oct-03 06:29N 51°55' E 004°12'0 0.0
2014-Oct-03 05:32N 51°55' E 004°12'0 0.0
2014-Oct-03 04:32N 51°55' E 004°12'0 0.0
2014-Oct-03 03:32N 51°55' E 004°12'0 0.0
2014-Oct-03 02:32N 51°55' E 004°12'0 0.0
2014-Oct-03 01:32N 51°55' E 004°12'0 0.0
2014-Oct-03 00:32N 51°55' E 004°12'0 0.0
2014-Oct-02 23:29N 51°55' E 004°12'0 0.0
2014-Oct-02 22:32N 51°55' E 004°12'0 0.0
2014-Oct-02 21:29N 51°55' E 004°12'0 0.0
2014-Oct-02 20:32N 51°55' E 004°12'0 0.0
2014-Oct-02 19:32N 51°55' E 004°12'0 0.0
2014-Oct-02 18:32N 51°55' E 004°12'0 0.0
2014-Oct-02 17:32N 51°55' E 004°12'0 0.0
2014-Oct-02 16:32N 51°55' E 004°12'0 0.0
2014-Oct-02 15:32N 51°55' E 004°12'0 0.0
2014-Oct-02 14:32N 51°55' E 004°12'0 0.0
2014-Oct-02 13:32N 51°55' E 004°12'0 0.0
2014-Oct-02 12:32N 51°55' E 004°12'0 0.0
2014-Oct-02 11:32N 51°55' E 004°12'0 0.0
2014-Oct-02 10:32N 51°55' E 004°12'0 0.0
2014-Oct-02 09:32N 51°55' E 004°12'0 0.0
2014-Oct-02 08:32N 51°55' E 004°12'0 0.0
2014-Oct-02 07:32N 51°55' E 004°12'0 0.0
2014-Oct-02 06:34N 51°55' E 004°12'1 0.8
2014-Oct-02 05:34N 51°56' E 004°12'0 0.0
2014-Oct-02 04:32N 51°56' E 004°12'0 0.0
2014-Oct-02 03:32N 51°56' E 004°12'0 0.0
2014-Oct-02 02:26N 51°56' E 004°12'0 0.0
2014-Oct-02 01:32N 51°56' E 004°12'0 0.0
2014-Oct-02 00:32N 51°56' E 004°12'0 0.0
2014-Oct-01 23:32N 51°56' E 004°12'0 0.0
2014-Oct-01 22:29N 51°56' E 004°12'0 0.0
2014-Oct-01 21:32N 51°56' E 004°12'0 0.0
2014-Oct-01 20:32N 51°56' E 004°12'0 0.0
2014-Oct-01 19:32N 51°56' E 004°12'0 0.0
2014-Oct-01 18:32N 51°56' E 004°12'0 0.0
2014-Oct-01 17:32N 51°56' E 004°12'0 0.0
2014-Oct-01 16:32N 51°56' E 004°12'0 0.0
2014-Oct-01 15:32N 51°56' E 004°12'0 0.0
2014-Oct-01 14:32N 51°56' E 004°12'0 0.0
2014-Oct-01 13:32N 51°56' E 004°12'0 0.0
2014-Oct-01 12:32N 51°56' E 004°12'0 0.0
2014-Oct-01 11:32N 51°56' E 004°12'0 0.0
2014-Oct-01 10:32N 51°56' E 004°12'0 0.0
2014-Oct-01 09:32N 51°56' E 004°12'0 0.0
2014-Oct-01 08:32N 51°56' E 004°12'0 0.0
2014-Oct-01 07:32N 51°56' E 004°12'0 0.0
2014-Oct-01 06:32N 51°56' E 004°12'0 0.0
2014-Oct-01 05:29N 51°56' E 004°12'0 0.0
2014-Oct-01 04:29N 51°56' E 004°12'0 0.0
2014-Oct-01 03:32N 51°56' E 004°12'0 0.0
2014-Oct-01 02:32N 51°56' E 004°12'0 0.0
2014-Oct-01 01:32N 51°56' E 004°12'0 0.0
2014-Oct-01 00:32N 51°56' E 004°12'0 0.0
2014-Sep-30 23:29N 51°56' E 004°12'0 0.0
2014-Sep-30 22:32N 51°56' E 004°12'0 0.0
2014-Sep-30 21:32N 51°56' E 004°12'0 0.0
2014-Sep-30 20:29N 51°56' E 004°12'0 0.0
2014-Sep-30 19:29N 51°56' E 004°12'0 0.0
2014-Sep-30 18:29N 51°56' E 004°12'0 0.0
2014-Sep-30 17:32N 51°56' E 004°12'0 0.0
2014-Sep-30 16:29N 51°56' E 004°12'0 0.0
2014-Sep-30 15:32N 51°56' E 004°12'0 0.0
2014-Sep-30 14:32N 51°56' E 004°12'0 0.0
2014-Sep-30 13:32N 51°56' E 004°12'0 0.0
2014-Sep-30 12:32N 51°56' E 004°12'0 0.0
2014-Sep-30 11:32N 51°56' E 004°12'0 0.0
2014-Sep-30 10:32N 51°56' E 004°12'0 0.0
2014-Sep-30 09:26N 51°56' E 004°12'0 0.0
2014-Sep-30 08:32N 51°56' E 004°12'0 0.0
2014-Sep-30 07:32N 51°56' E 004°12'0 0.0
2014-Sep-30 06:32N 51°56' E 004°12'0 0.0
2014-Sep-30 05:32N 51°56' E 004°12'0 0.0
2014-Sep-30 04:32N 51°56' E 004°12'0 0.0
2014-Sep-30 03:32N 51°56' E 004°12'0 0.0
2014-Sep-30 02:32N 51°56' E 004°12'0 0.0
2014-Sep-30 01:32N 51°56' E 004°12'0 0.0
2014-Sep-30 00:32N 51°56' E 004°12'0 0.0
2014-Sep-29 23:32N 51°56' E 004°12'0 0.0
2014-Sep-29 22:32N 51°56' E 004°12'0 0.0
2014-Sep-29 21:29N 51°56' E 004°12'0 0.0
2014-Sep-29 20:29N 51°56' E 004°12'0 0.0
2014-Sep-29 19:29N 51°56' E 004°12'0 0.0
2014-Sep-29 18:32N 51°56' E 004°12'0 0.0
2014-Sep-29 17:32N 51°56' E 004°12'0 0.0
2014-Sep-29 16:29N 51°56' E 004°12'0 0.0
2014-Sep-29 15:32N 51°56' E 004°12'0 0.0
2014-Sep-29 14:32N 51°56' E 004°12'0 0.0
2014-Sep-29 13:29N 51°56' E 004°12'0 0.0
2014-Sep-29 12:29N 51°56' E 004°12'0 0.0
2014-Sep-29 11:32N 51°56' E 004°12'0 0.0
2014-Sep-29 10:32N 51°56' E 004°12'0 0.0
2014-Sep-29 09:29N 51°56' E 004°12'0 0.0
2014-Sep-29 08:32N 51°56' E 004°12'0 0.0
2014-Sep-29 07:32N 51°56' E 004°12'0 0.0
2014-Sep-29 06:32N 51°56' E 004°12'0 0.0
2014-Sep-29 05:32N 51°56' E 004°12'0 0.0
2014-Sep-29 04:32N 51°56' E 004°12'0 0.0
2014-Sep-29 03:32N 51°56' E 004°12'0 0.0
2014-Sep-29 02:29N 51°56' E 004°12'0 0.0
2014-Sep-29 01:32N 51°56' E 004°12'0 0.0
2014-Sep-29 00:32N 51°56' E 004°12'0 0.0
2014-Sep-28 23:32N 51°56' E 004°12'0 0.0
2014-Sep-28 22:32N 51°56' E 004°12'0 0.0
2014-Sep-28 21:32N 51°56' E 004°12'0 0.0
2014-Sep-28 20:32N 51°56' E 004°12'0 0.0
2014-Sep-28 19:29N 51°56' E 004°12'0 0.0
2014-Sep-28 18:32N 51°56' E 004°12'0 0.0
2014-Sep-28 17:32N 51°56' E 004°12'0 0.0
2014-Sep-28 16:29N 51°56' E 004°12'0 0.0
2014-Sep-28 15:32N 51°56' E 004°12'0 0.0
2014-Sep-28 14:29N 51°56' E 004°12'0 0.0
2014-Sep-28 13:32N 51°56' E 004°12'  
Track history (hours):
 
Tides and Currents Weather Stations Pressure Air Temp Water Temp Dewpoint Dewpoint Depression Visibility Wind Speed Wind Dir Waves Ship Positions

Astro Chloe

Last reported at 2014-Oct-08 13:23 UTC. Time now 2014-Oct-22 01:36 UTC.
Position N 50°19' W 001°07'.
Warning: this ship's position is 13 days out of date.

Length 333 m; draft 21 m.

Type: Ship (hazmat cat C). MMSI: 240839000.

Date/timePositionNaut miles runAvg speedWind from/ knotsBaromVisibWave heightAir tempDewpointWater temp
2014-Oct-08 13:23N 50°19' W 001°07'1214.9
2014-Oct-08 12:33N 50°22' W 000°48'3012.8
2014-Oct-08 10:10N 50°31' W 000°02'910.5
2014-Oct-08 09:16N 50°33' E 000°12'10 9.7
2014-Oct-08 08:16N 50°36' E 000°27'810.2
2014-Oct-08 07:28N 50°38' E 000°39'1211.8
2014-Oct-08 06:28N 50°44' E 000°55'1313.9
2014-Oct-08 05:34N 50°51' E 001°12'1414.2
2014-Oct-08 04:33N 51°01' E 001°27'1312.9
2014-Oct-08 03:33N 51°11' E 001°42'1111.2
2014-Oct-08 02:33N 51°20' E 001°53'1010.1
2014-Oct-08 01:33N 51°28' E 002°01'10 9.9
2014-Oct-08 00:34N 51°35' E 002°12'1010.2
2014-Oct-07 23:33N 51°44' E 002°22'1211.2
2014-Oct-07 22:31N 51°51' E 002°36'2010.0
2014-Oct-07 20:33N 51°59' E 003°06'5 5.4
2014-Oct-07 19:33N 51°59' E 003°14'10 9.5
2014-Oct-07 18:31N 51°60' E 003°30'1010.1
2014-Oct-07 17:33N 52°01' E 003°46'1010.1
2014-Oct-07 16:33N 51°60' E 004°02'6 5.6
2014-Oct-07 15:33N 51°57' E 004°10'2 2.5
2014-Oct-07 14:33N 51°55' E 004°12'0 0.0
2014-Oct-07 13:32N 51°55' E 004°12'0 0.0
2014-Oct-07 12:29N 51°55' E 004°12'0 0.0
2014-Oct-07 11:32N 51°55' E 004°12'0 0.0
2014-Oct-07 10:32N 51°55' E 004°12'0 0.0
2014-Oct-07 09:29N 51°55' E 004°12'0 0.0
2014-Oct-07 08:29N 51°55' E 004°12'0 0.0
2014-Oct-07 07:26N 51°55' E 004°12'0 0.0
2014-Oct-07 06:32N 51°55' E 004°12'0 0.0
2014-Oct-07 05:29N 51°55' E 004°12'0 0.0
2014-Oct-07 04:29N 51°55' E 004°12'0 0.0
2014-Oct-07 03:32N 51°55' E 004°12'0 0.0
2014-Oct-07 02:29N 51°55' E 004°12'0 0.0
2014-Oct-07 01:32N 51°55' E 004°12'0 0.0
2014-Oct-07 00:32N 51°55' E 004°12'0 0.0
2014-Oct-06 23:32N 51°55' E 004°12'0 0.0
2014-Oct-06 22:32N 51°55' E 004°12'0 0.0
2014-Oct-06 21:32N 51°55' E 004°12'0 0.0
2014-Oct-06 20:32N 51°55' E 004°12'0 0.0
2014-Oct-06 19:32N 51°55' E 004°12'0 0.0
2014-Oct-06 18:32N 51°55' E 004°12'0 0.0
2014-Oct-06 17:32N 51°55' E 004°12'0 0.0
2014-Oct-06 16:32N 51°55' E 004°12'0 0.0
2014-Oct-06 15:32N 51°55' E 004°12'0 0.0
2014-Oct-06 14:32N 51°55' E 004°12'0 0.0
2014-Oct-06 13:32N 51°55' E 004°12'0 0.0
2014-Oct-06 12:29N 51°55' E 004°12'0 0.0
2014-Oct-06 11:29N 51°55' E 004°12'0 0.0
2014-Oct-06 10:32N 51°55' E 004°12'0 0.0
2014-Oct-06 09:29N 51°55' E 004°12'0 0.0
2014-Oct-06 08:29N 51°55' E 004°12'0 0.0
2014-Oct-06 07:32N 51°55' E 004°12'0 0.0
2014-Oct-06 06:29N 51°55' E 004°12'0 0.0
2014-Oct-06 05:29N 51°55' E 004°12'0 0.0
2014-Oct-06 04:32N 51°55' E 004°12'0 0.0
2014-Oct-06 03:32N 51°55' E 004°12'0 0.0
2014-Oct-06 02:32N 51°55' E 004°12'0 0.0
2014-Oct-06 01:32N 51°55' E 004°12'0 0.0
2014-Oct-06 00:29N 51°55' E 004°12'0 0.0
2014-Oct-05 23:32N 51°55' E 004°12'0 0.0
2014-Oct-05 22:26N 51°55' E 004°12'0 0.0
2014-Oct-05 21:32N 51°55' E 004°12'0 0.0
2014-Oct-05 20:29N 51°55' E 004°12'0 0.0
2014-Oct-05 19:32N 51°55' E 004°12'0 0.0
2014-Oct-05 18:32N 51°55' E 004°12'0 0.0
2014-Oct-05 17:32N 51°55' E 004°12'0 0.0
2014-Oct-05 16:32N 51°55' E 004°12'0 0.0
2014-Oct-05 15:29N 51°55' E 004°12'0 0.0
2014-Oct-05 14:32N 51°55' E 004°12'0 0.0
2014-Oct-05 13:32N 51°55' E 004°12'0 0.0
2014-Oct-05 12:32N 51°55' E 004°12'0 0.0
2014-Oct-05 11:29N 51°55' E 004°12'0 0.0
2014-Oct-05 10:32N 51°55' E 004°12'0 0.0
2014-Oct-05 09:32N 51°55' E 004°12'0 0.0
2014-Oct-05 08:32N 51°55' E 004°12'0 0.0
2014-Oct-05 07:32N 51°55' E 004°12'0 0.0
2014-Oct-05 06:32N 51°55' E 004°12'0 0.0
2014-Oct-05 05:32N 51°55' E 004°12'0 0.0
2014-Oct-05 04:32N 51°55' E 004°12'0 0.0
2014-Oct-05 03:32N 51°55' E 004°12'0 0.0
2014-Oct-05 02:32N 51°55' E 004°12'0 0.0
2014-Oct-05 01:32N 51°55' E 004°12'0 0.0
2014-Oct-05 00:32N 51°55' E 004°12'0 0.0
2014-Oct-04 23:32N 51°55' E 004°12'0 0.0
2014-Oct-04 22:32N 51°55' E 004°12'0 0.0
2014-Oct-04 21:32N 51°55' E 004°12'0 0.0
2014-Oct-04 20:32N 51°55' E 004°12'0 0.0
2014-Oct-04 19:29N 51°55' E 004°12'0 0.0
2014-Oct-04 18:32N 51°55' E 004°12'0 0.0
2014-Oct-04 17:32N 51°55' E 004°12'0 0.0
2014-Oct-04 16:29N 51°55' E 004°12'0 0.0
2014-Oct-04 15:32N 51°55' E 004°12'0 0.0
2014-Oct-04 14:32N 51°55' E 004°12'0 0.0
2014-Oct-04 13:32N 51°55' E 004°12'0 0.0
2014-Oct-04 12:32N 51°55' E 004°12'0 0.0
2014-Oct-04 11:32N 51°55' E 004°12'0 0.0
2014-Oct-04 10:32N 51°55' E 004°12'0 0.0
2014-Oct-04 09:32N 51°55' E 004°12'0 0.0
2014-Oct-04 08:29N 51°55' E 004°12'0 0.0
2014-Oct-04 07:29N 51°55' E 004°12'0 0.0
2014-Oct-04 06:32N 51°55' E 004°12'0 0.0
2014-Oct-04 05:32N 51°55' E 004°12'0 0.0
2014-Oct-04 04:32N 51°55' E 004°12'0 0.0
2014-Oct-04 03:29N 51°55' E 004°12'0 0.0
2014-Oct-04 02:29N 51°55' E 004°12'0 0.0
2014-Oct-04 01:32N 51°55' E 004°12'0 0.0
2014-Oct-04 00:29N 51°55' E 004°12'0 0.0
2014-Oct-03 23:32N 51°55' E 004°12'0 0.0
2014-Oct-03 22:32N 51°55' E 004°12'0 0.0
2014-Oct-03 21:32N 51°55' E 004°12'0 0.0
2014-Oct-03 20:32N 51°55' E 004°12'0 0.0
2014-Oct-03 19:29N 51°55' E 004°12'0 0.0
2014-Oct-03 18:32N 51°55' E 004°12'0 0.0
2014-Oct-03 17:32N 51°55' E 004°12'0 0.0
2014-Oct-03 16:32N 51°55' E 004°12'0 0.0
2014-Oct-03 15:32N 51°55' E 004°12'0 0.0
2014-Oct-03 14:32N 51°55' E 004°12'0 0.0
2014-Oct-03 13:29N 51°55' E 004°12'0 0.0
2014-Oct-03 12:32N 51°55' E 004°12'0 0.0
2014-Oct-03 11:32N 51°55' E 004°12'0 0.0
2014-Oct-03 10:32N 51°55' E 004°12'0 0.0
2014-Oct-03 09:32N 51°55' E 004°12'0 0.0
2014-Oct-03 08:23N 51°55' E 004°12'0 0.0
2014-Oct-03 07:29N 51°55' E 004°12'0 0.0
2014-Oct-03 06:29N 51°55' E 004°12'0 0.0
2014-Oct-03 05:32N 51°55' E 004°12'0 0.0
2014-Oct-03 04:32N 51°55' E 004°12'0 0.0
2014-Oct-03 03:32N 51°55' E 004°12'0 0.0
2014-Oct-03 02:32N 51°55' E 004°12'0 0.0
2014-Oct-03 01:32N 51°55' E 004°12'0 0.0
2014-Oct-03 00:32N 51°55' E 004°12'0 0.0
2014-Oct-02 23:29N 51°55' E 004°12'0 0.0
2014-Oct-02 22:32N 51°55' E 004°12'0 0.0
2014-Oct-02 21:29N 51°55' E 004°12'0 0.0
2014-Oct-02 20:32N 51°55' E 004°12'0 0.0
2014-Oct-02 19:32N 51°55' E 004°12'0 0.0
2014-Oct-02 18:32N 51°55' E 004°12'0 0.0
2014-Oct-02 17:32N 51°55' E 004°12'0 0.0
2014-Oct-02 16:32N 51°55' E 004°12'0 0.0
2014-Oct-02 15:32N 51°55' E 004°12'0 0.0
2014-Oct-02 14:32N 51°55' E 004°12'0 0.0
2014-Oct-02 13:32N 51°55' E 004°12'0 0.0
2014-Oct-02 12:32N 51°55' E 004°12'0 0.0
2014-Oct-02 11:32N 51°55' E 004°12'0 0.0
2014-Oct-02 10:32N 51°55' E 004°12'0 0.0
2014-Oct-02 09:32N 51°55' E 004°12'0 0.0
2014-Oct-02 08:32N 51°55' E 004°12'0 0.0
2014-Oct-02 07:32N 51°55' E 004°12'0 0.0
2014-Oct-02 06:34N 51°55' E 004°12'1 0.8
2014-Oct-02 05:34N 51°56' E 004°12'0 0.0
2014-Oct-02 04:32N 51°56' E 004°12'0 0.0
2014-Oct-02 03:32N 51°56' E 004°12'0 0.0
2014-Oct-02 02:26N 51°56' E 004°12'0 0.0
2014-Oct-02 01:32N 51°56' E 004°12'0 0.0
2014-Oct-02 00:32N 51°56' E 004°12'0 0.0
2014-Oct-01 23:32N 51°56' E 004°12'0 0.0
2014-Oct-01 22:29N 51°56' E 004°12'0 0.0
2014-Oct-01 21:32N 51°56' E 004°12'0 0.0
2014-Oct-01 20:32N 51°56' E 004°12'0 0.0
2014-Oct-01 19:32N 51°56' E 004°12'0 0.0
2014-Oct-01 18:32N 51°56' E 004°12'0 0.0
2014-Oct-01 17:32N 51°56' E 004°12'0 0.0
2014-Oct-01 16:32N 51°56' E 004°12'0 0.0
2014-Oct-01 15:32N 51°56' E 004°12'0 0.0
2014-Oct-01 14:32N 51°56' E 004°12'0 0.0
2014-Oct-01 13:32N 51°56' E 004°12'0 0.0
2014-Oct-01 12:32N 51°56' E 004°12'0 0.0
2014-Oct-01 11:32N 51°56' E 004°12'0 0.0
2014-Oct-01 10:32N 51°56' E 004°12'0 0.0
2014-Oct-01 09:32N 51°56' E 004°12'0 0.0
2014-Oct-01 08:32N 51°56' E 004°12'0 0.0
2014-Oct-01 07:32N 51°56' E 004°12'0 0.0
2014-Oct-01 06:32N 51°56' E 004°12'0 0.0
2014-Oct-01 05:29N 51°56' E 004°12'0 0.0
2014-Oct-01 04:29N 51°56' E 004°12'0 0.0
2014-Oct-01 03:32N 51°56' E 004°12'0 0.0
2014-Oct-01 02:32N 51°56' E 004°12'0 0.0
2014-Oct-01 01:32N 51°56' E 004°12'0 0.0
2014-Oct-01 00:32N 51°56' E 004°12'0 0.0
2014-Sep-30 23:29N 51°56' E 004°12'0 0.0
2014-Sep-30 22:32N 51°56' E 004°12'0 0.0
2014-Sep-30 21:32N 51°56' E 004°12'0 0.0
2014-Sep-30 20:29N 51°56' E 004°12'0 0.0
2014-Sep-30 19:29N 51°56' E 004°12'0 0.0
2014-Sep-30 18:29N 51°56' E 004°12'0 0.0
2014-Sep-30 17:32N 51°56' E 004°12'0 0.0
2014-Sep-30 16:29N 51°56' E 004°12'0 0.0
2014-Sep-30 15:32N 51°56' E 004°12'0 0.0
2014-Sep-30 14:32N 51°56' E 004°12'0 0.0
2014-Sep-30 13:32N 51°56' E 004°12'0 0.0
2014-Sep-30 12:32N 51°56' E 004°12'0 0.0
2014-Sep-30 11:32N 51°56' E 004°12'0 0.0
2014-Sep-30 10:32N 51°56' E 004°12'0 0.0
2014-Sep-30 09:26N 51°56' E 004°12'0 0.0
2014-Sep-30 08:32N 51°56' E 004°12'0 0.0
2014-Sep-30 07:32N 51°56' E 004°12'0 0.0
2014-Sep-30 06:32N 51°56' E 004°12'0 0.0
2014-Sep-30 05:32N 51°56' E 004°12'0 0.0
2014-Sep-30 04:32N 51°56' E 004°12'0 0.0
2014-Sep-30 03:32N 51°56' E 004°12'0 0.0
2014-Sep-30 02:32N 51°56' E 004°12'0 0.0
2014-Sep-30 01:32N 51°56' E 004°12'0 0.0
2014-Sep-30 00:32N 51°56' E 004°12'0 0.0
2014-Sep-29 23:32N 51°56' E 004°12'0 0.0
2014-Sep-29 22:32N 51°56' E 004°12'0 0.0
2014-Sep-29 21:29N 51°56' E 004°12'0 0.0
2014-Sep-29 20:29N 51°56' E 004°12'0 0.0
2014-Sep-29 19:29N 51°56' E 004°12'0 0.0
2014-Sep-29 18:32N 51°56' E 004°12'0 0.0
2014-Sep-29 17:32N 51°56' E 004°12'0 0.0
2014-Sep-29 16:29N 51°56' E 004°12'0 0.0
2014-Sep-29 15:32N 51°56' E 004°12'0 0.0
2014-Sep-29 14:32N 51°56' E 004°12'0 0.0
2014-Sep-29 13:29N 51°56' E 004°12'0 0.0
2014-Sep-29 12:29N 51°56' E 004°12'0 0.0
2014-Sep-29 11:32N 51°56' E 004°12'0 0.0
2014-Sep-29 10:32N 51°56' E 004°12'0 0.0
2014-Sep-29 09:29N 51°56' E 004°12'0 0.0
2014-Sep-29 08:32N 51°56' E 004°12'0 0.0
2014-Sep-29 07:32N 51°56' E 004°12'0 0.0
2014-Sep-29 06:32N 51°56' E 004°12'0 0.0
2014-Sep-29 05:32N 51°56' E 004°12'0 0.0
2014-Sep-29 04:32N 51°56' E 004°12'0 0.0
2014-Sep-29 03:32N 51°56' E 004°12'0 0.0
2014-Sep-29 02:29N 51°56' E 004°12'0 0.0
2014-Sep-29 01:32N 51°56' E 004°12'0 0.0
2014-Sep-29 00:32N 51°56' E 004°12'0 0.0
2014-Sep-28 23:32N 51°56' E 004°12'0 0.0
2014-Sep-28 22:32N 51°56' E 004°12'0 0.0
2014-Sep-28 21:32N 51°56' E 004°12'0 0.0
2014-Sep-28 20:32N 51°56' E 004°12'0 0.0
2014-Sep-28 19:29N 51°56' E 004°12'0 0.0
2014-Sep-28 18:32N 51°56' E 004°12'0 0.0
2014-Sep-28 17:32N 51°56' E 004°12'0 0.0
2014-Sep-28 16:29N 51°56' E 004°12'0 0.0
2014-Sep-28 15:32N 51°56' E 004°12'0 0.0
2014-Sep-28 14:29N 51°56' E 004°12'0 0.0
2014-Sep-28 13:32N 51°56' E 004°12'  

Dump ship's entire track history